Carsonville, Michigan
Current Conditions -  °F | °C
As of 9:58 AM on Tuesday 21 Oct 2014 (Local Time) from KBAX Reporting Station
Overcast Overcast  
Wind Chill: 37°   Ceiling: 1600
Heat Index: 44°   Visibility: 10mi
Dew Point: 41°   Wind: 14mph
Humidity: 89%   Direction: 10°N
Pressure: 30.04"   Gusts: 22mph
Location:  43.43°N, 82.67°W
Report Text: KBAX 211358Z AUTO 01012G19KT 10SM OVC016 07/05 A3004 RMK AO2 T00650048
Loading
Personal Weather Stations






























Interactive Weather Map
Tropical Storm Tracking
New forecast layout! Learn more

10-Day Weather Forecast

Advertisements
Track Severe Weather on mobile